Adventuress — WCX8691 — position and weather

sailwx.info

Track history (hours):
 
Tides and Currents Weather Stations Pressure Air Temp Water Temp Dewpoint Dewpoint Depression Visibility Wind Speed Wind Dir Waves Ship Positions

Adventuress (United States)

Ship's website: http://www.soundexp.org/

Owner: SOUND EXPERIENCE, PORT TOWNSEND, WA. More information available from US FCC via Universal Licensing System and Coast Guard Vessel Documentation Center.

Last reported at 2016-Jun-26 18:29 UTC. Time now 2016-Jun-26 19:17 UTC.
Position N 48°36' W 122°48'.

Type: Passenger vessel. MMSI: 367323180.

Date/timePositionNaut miles runAvg speedWind from/ knotsBaromVisibWave heightAir tempDewpointWater temp
2016-Jun-26 18:29N 48°36' W 122°48'3 0.1
2016-Jun-25 22:30N 48°34' W 122°51'10 2.9
2016-Jun-25 19:06N 48°35' W 122°37'3 3.9
2016-Jun-25 18:26N 48°33' W 122°34'3 2.8
2016-Jun-25 17:31N 48°31' W 122°36'0 0.0
2016-Jun-25 16:31N 48°31' W 122°36'0 0.0
2016-Jun-25 15:31N 48°31' W 122°36'0 0.0
2016-Jun-25 14:31N 48°31' W 122°36'0 0.0
2016-Jun-25 13:31N 48°31' W 122°36'0 0.0
2016-Jun-25 12:31N 48°31' W 122°36'0 0.0
2016-Jun-25 11:31N 48°31' W 122°36'0 0.0
2016-Jun-25 10:31N 48°31' W 122°36'0 0.0
2016-Jun-25 09:31N 48°31' W 122°36'0 0.0
2016-Jun-25 08:31N 48°31' W 122°36'0 0.0
2016-Jun-25 07:31N 48°31' W 122°36'0 0.0
2016-Jun-25 06:31N 48°31' W 122°36'0 0.0
2016-Jun-25 04:31N 48°31' W 122°36'0 0.0
2016-Jun-25 03:31N 48°31' W 122°36'0 0.0
2016-Jun-25 02:31N 48°31' W 122°36'0 0.0
2016-Jun-25 01:31N 48°31' W 122°36'0 0.0
2016-Jun-25 00:31N 48°31' W 122°36'0 0.0
2016-Jun-24 23:31N 48°31' W 122°36'0 0.0
2016-Jun-24 22:31N 48°31' W 122°36'0 0.0
2016-Jun-24 15:23N 48°31' W 122°36'0 0.0
2016-Jun-24 14:29N 48°31' W 122°36'0 0.0
2016-Jun-24 13:29N 48°31' W 122°36'0 0.0
2016-Jun-24 12:29N 48°31' W 122°36'0 0.0
2016-Jun-24 11:17N 48°31' W 122°36'0 0.0
2016-Jun-24 10:29N 48°31' W 122°36'0 0.0
2016-Jun-24 09:29N 48°31' W 122°36'0 0.0
2016-Jun-24 08:29N 48°31' W 122°36'0 0.0
2016-Jun-24 00:24N 48°31' W 122°36'35 4.8
2016-Jun-23 17:08N 47°56' W 122°30'4 6.9
2016-Jun-23 16:33N 47°53' W 122°27'9 6.3
2016-Jun-23 15:07N 47°44' W 122°25'3 4.7
2016-Jun-23 14:28N 47°41' W 122°24'1 0.0
2016-Jun-22 19:30N 47°42' W 122°25'4 0.1
2016-Jun-21 19:29N 47°39' W 122°29'3 0.1
2016-Jun-20 19:31N 47°41' W 122°25'0 0.0
2016-Jun-20 00:30N 47°41' W 122°25'2 1.4
2016-Jun-19 23:14N 47°42' W 122°27'2 2.5
2016-Jun-19 22:33N 47°41' W 122°25'1 0.2
2016-Jun-19 19:31N 47°41' W 122°26'0 0.4
2016-Jun-19 18:32N 47°41' W 122°25'0 0.0
2016-Jun-19 00:33N 47°41' W 122°25'1 0.9
2016-Jun-18 23:31N 47°41' W 122°26'1 0.3
2016-Jun-18 20:32N 47°41' W 122°25'0 0.5
2016-Jun-18 19:33N 47°41' W 122°26'1 0.0
2016-Jun-18 02:32N 47°41' W 122°25'1 1.3
2016-Jun-18 01:32N 47°41' W 122°27'1 0.0
2016-Jun-16 20:27N 47°41' W 122°24'  
Track history (hours):
 
Tides and Currents Weather Stations Pressure Air Temp Water Temp Dewpoint Dewpoint Depression Visibility Wind Speed Wind Dir Waves Ship Positions

Adventuress (United States)

Ship's website: http://www.soundexp.org/

Owner: SOUND EXPERIENCE, PORT TOWNSEND, WA. More information available from US FCC via Universal Licensing System and Coast Guard Vessel Documentation Center.

Last reported at 2016-Jun-26 18:29 UTC. Time now 2016-Jun-26 19:17 UTC.
Position N 48°36' W 122°48'.

Type: Passenger vessel. MMSI: 367323180.

Date/timePositionNaut miles runAvg speedWind from/ knotsBaromVisibWave heightAir tempDewpointWater temp
2016-Jun-26 18:29N 48°36' W 122°48'3 0.1
2016-Jun-25 22:30N 48°34' W 122°51'10 2.9
2016-Jun-25 19:06N 48°35' W 122°37'3 3.9
2016-Jun-25 18:26N 48°33' W 122°34'3 2.8
2016-Jun-25 17:31N 48°31' W 122°36'0 0.0
2016-Jun-25 16:31N 48°31' W 122°36'0 0.0
2016-Jun-25 15:31N 48°31' W 122°36'0 0.0
2016-Jun-25 14:31N 48°31' W 122°36'0 0.0
2016-Jun-25 13:31N 48°31' W 122°36'0 0.0
2016-Jun-25 12:31N 48°31' W 122°36'0 0.0
2016-Jun-25 11:31N 48°31' W 122°36'0 0.0
2016-Jun-25 10:31N 48°31' W 122°36'0 0.0
2016-Jun-25 09:31N 48°31' W 122°36'0 0.0
2016-Jun-25 08:31N 48°31' W 122°36'0 0.0
2016-Jun-25 07:31N 48°31' W 122°36'0 0.0
2016-Jun-25 06:31N 48°31' W 122°36'0 0.0
2016-Jun-25 04:31N 48°31' W 122°36'0 0.0
2016-Jun-25 03:31N 48°31' W 122°36'0 0.0
2016-Jun-25 02:31N 48°31' W 122°36'0 0.0
2016-Jun-25 01:31N 48°31' W 122°36'0 0.0
2016-Jun-25 00:31N 48°31' W 122°36'0 0.0
2016-Jun-24 23:31N 48°31' W 122°36'0 0.0
2016-Jun-24 22:31N 48°31' W 122°36'0 0.0
2016-Jun-24 15:23N 48°31' W 122°36'0 0.0
2016-Jun-24 14:29N 48°31' W 122°36'0 0.0
2016-Jun-24 13:29N 48°31' W 122°36'0 0.0
2016-Jun-24 12:29N 48°31' W 122°36'0 0.0
2016-Jun-24 11:17N 48°31' W 122°36'0 0.0
2016-Jun-24 10:29N 48°31' W 122°36'0 0.0
2016-Jun-24 09:29N 48°31' W 122°36'0 0.0
2016-Jun-24 08:29N 48°31' W 122°36'0 0.0
2016-Jun-24 00:24N 48°31' W 122°36'35 4.8
2016-Jun-23 17:08N 47°56' W 122°30'4 6.9
2016-Jun-23 16:33N 47°53' W 122°27'9 6.3
2016-Jun-23 15:07N 47°44' W 122°25'3 4.7
2016-Jun-23 14:28N 47°41' W 122°24'1 0.0
2016-Jun-22 19:30N 47°42' W 122°25'4 0.1
2016-Jun-21 19:29N 47°39' W 122°29'3 0.1
2016-Jun-20 19:31N 47°41' W 122°25'0 0.0
2016-Jun-20 00:30N 47°41' W 122°25'2 1.4
2016-Jun-19 23:14N 47°42' W 122°27'2 2.5
2016-Jun-19 22:33N 47°41' W 122°25'1 0.2
2016-Jun-19 19:31N 47°41' W 122°26'0 0.4
2016-Jun-19 18:32N 47°41' W 122°25'0 0.0
2016-Jun-19 00:33N 47°41' W 122°25'1 0.9
2016-Jun-18 23:31N 47°41' W 122°26'1 0.3
2016-Jun-18 20:32N 47°41' W 122°25'0 0.5
2016-Jun-18 19:33N 47°41' W 122°26'1 0.0
2016-Jun-18 02:32N 47°41' W 122°25'1 1.3
2016-Jun-18 01:32N 47°41' W 122°27'1 0.0
2016-Jun-16 20:27N 47°41' W 122°24'  

Dump ship's entire track history